Time;durP1;ratioP1;P1;durP2;ratioP2;P2;SDS_P1;SDS_P2;PMS_P1;PMS_P2;Temp;Humidity;BMP_temperature;BMP_pressure;BME280_temperature;BME280_humidity;BME280_pressure;Samples;Min_cycle;Max_cycle;Signal;HPM_P1;HPM_P2
2023/01/25 00:00:12;;;;;;;;;;;;;;;21.41;23.08;99300.78;5035844;28;933;-79
2023/01/25 00:02:38;;;;;;;;;;;;;;;21.38;22.80;99303.63;5036302;28;759;-80
2023/01/25 00:05:03;;;;;;;;;;;;;;;21.20;23.25;99293.16;5035673;28;789;-79
2023/01/25 00:07:29;;;;;;;;;;;;;;;21.14;22.97;99288.31;5036066;28;924;-79
2023/01/25 00:09:54;;;;;;;;;;;;;;;21.60;22.63;99282.44;5019738;28;778;-79
2023/01/25 00:12:20;;;;;;;;;;;;;;;21.28;22.84;99277.75;5036280;28;1024;-80
2023/01/25 00:14:45;;;;;;;;;;;;;;;21.32;22.63;99281.41;5002958;28;1906;-79
2023/01/25 00:17:11;;;;;;;;;;;;;;;21.16;22.76;99277.41;5019756;28;787;-80
2023/01/25 00:19:36;;;;;;;;;;;;;;;20.97;23.17;99273.03;5066825;28;924;-79
2023/01/25 00:22:01;;;;;;;;;;;;;;;20.91;23.61;99269.03;5111116;28;821;-80
2023/01/25 00:24:27;;;;;;;;;;;;;;;21.33;22.95;99277.34;5055289;28;956;-80
2023/01/25 00:26:52;;;;;;;;;;;;;;;21.29;22.81;99270.06;5056324;28;954;-79
2023/01/25 00:29:18;;;;;;;;;;;;;;;21.42;22.81;99254.25;5039096;28;985;-79
2023/01/25 00:31:53;;;;;;;;;;;;;;;21.03;22.92;99260.06;5023184;28;1170;-79
2023/01/25 00:34:24;;;;;;;;;;;;;;;21.18;22.77;99261.63;5035260;28;1906;-80
2023/01/25 00:37:02;;;;;;;;;;;;;;;21.25;22.68;99257.97;5035685;28;1154;-80
2023/01/25 00:39:27;;;;;;;;;;;;;;;21.27;22.82;99259.16;5051968;28;782;-80
2023/01/25 00:41:53;;;;;;;;;;;;;;;21.32;22.66;99247.44;5019396;28;1112;-79
2023/01/25 00:44:18;;;;;;;;;;;;;;;21.38;22.51;99247.78;5018854;28;878;-79
2023/01/25 00:46:44;;;;;;;;;;;;;;;21.13;22.72;99253.56;5035827;28;767;-79
2023/01/25 00:49:36;;;;;;;;;;;;;;;21.12;22.77;99251.16;5035184;28;1252;-80
2023/01/25 00:52:02;;;;;;;;;;;;;;;21.04;22.82;99256.84;5035654;28;951;-80
2023/01/25 00:54:27;;;;;;;;;;;;;;;21.69;22.17;99259.34;5021265;28;1979;-79
2023/01/25 00:56:55;;;;;;;;;;;;;;;21.65;22.00;99255.72;5059804;28;920;-79
2023/01/25 00:59:21;;;;;;;;;;;;;;;21.14;22.66;99257.19;5042455;28;1241;-79
2023/01/25 01:01:46;;;;;;;;;;;;;;;21.24;22.49;99260.00;5026611;28;1133;-80
2023/01/25 01:04:12;;;;;;;;;;;;;;;21.08;22.98;99245.50;5060316;28;959;-80
2023/01/25 01:06:39;;;;;;;;;;;;;;;21.74;22.03;99242.69;5046789;28;1118;-80
2023/01/25 01:09:05;;;;;;;;;;;;;;;21.93;21.46;99246.22;4986602;28;1374;-80
2023/01/25 01:11:31;;;;;;;;;;;;;;;21.93;21.40;99243.38;4987245;28;1223;-80
2023/01/25 01:13:57;;;;;;;;;;;;;;;21.31;22.33;99247.84;4986734;28;1981;-80
2023/01/25 01:16:22;;;;;;;;;;;;;;;21.18;22.32;99243.84;5003039;28;1371;-80
2023/01/25 01:18:50;;;;;;;;;;;;;;;21.41;22.11;99246.19;5018948;28;916;-79
2023/01/25 01:21:16;;;;;;;;;;;;;;;21.29;22.16;99239.72;5003198;28;1096;-79
2023/01/25 01:23:42;;;;;;;;;;;;;;;21.41;22.13;99235.66;5018955;28;920;-79
2023/01/25 01:26:10;;;;;;;;;;;;;;;21.19;22.44;99239.78;4986651;28;1266;-79
2023/01/25 01:28:38;;;;;;;;;;;;;;;21.25;22.58;99233.28;5010625;28;952;-80
2023/01/25 01:31:04;;;;;;;;;;;;;;;21.22;22.53;99239.75;5022973;28;784;-80
2023/01/25 01:33:34;;;;;;;;;;;;;;;21.47;22.17;99228.31;5022562;28;1887;-79
2023/01/25 01:36:05;;;;;;;;;;;;;;;21.30;22.15;99232.09;5039023;28;848;-80
2023/01/25 01:38:31;;;;;;;;;;;;;;;21.44;22.02;99234.81;5021824;28;834;-80
2023/01/25 01:40:57;;;;;;;;;;;;;;;21.04;22.43;99236.25;5071887;28;905;-79
2023/01/25 01:43:22;;;;;;;;;;;;;;;21.10;22.80;99220.44;5101659;28;1564;-79
2023/01/25 01:45:51;;;;;;;;;;;;;;;21.19;22.32;99217.13;5102285;28;1174;-80
2023/01/25 01:48:37;;;;;;;;;;;;;;;21.43;21.98;99215.41;5102244;28;1383;-79
2023/01/25 01:51:13;;;;;;;;;;;;;;;21.38;22.35;99213.03;5102601;28;1102;-80
2023/01/25 01:53:39;;;;;;;;;;;;;;;21.02;22.59;99214.00;5118605;28;1901;-79
2023/01/25 01:56:06;;;;;;;;;;;;;;;21.17;22.18;99211.91;5061832;28;1232;-80
2023/01/25 01:58:32;;;;;;;;;;;;;;;21.26;22.15;99212.25;5061168;28;1293;-80
2023/01/25 02:00:57;;;;;;;;;;;;;;;21.49;21.75;99214.56;5061875;28;1155;-80
2023/01/25 02:03:23;;;;;;;;;;;;;;;21.41;21.87;99212.19;5061479;28;777;-79
2023/01/25 02:05:48;;;;;;;;;;;;;;;21.43;21.65;99206.91;5078002;28;790;-80
2023/01/25 02:08:14;;;;;;;;;;;;;;;21.20;21.98;99207.44;5038052;28;1232;-80
2023/01/25 02:10:40;;;;;;;;;;;;;;;21.18;22.07;99205.00;5021985;28;1425;-80
2023/01/25 02:13:05;;;;;;;;;;;;;;;21.43;22.11;99206.91;5037920;28;1898;-80
2023/01/25 02:15:34;;;;;;;;;;;;;;;21.84;21.20;99210.66;5002899;28;1263;-79
2023/01/25 02:18:00;;;;;;;;;;;;;;;21.28;21.77;99209.00;5002228;28;1270;-80
2023/01/25 02:20:29;;;;;;;;;;;;;;;21.12;22.38;99201.00;5061392;28;1109;-79
2023/01/25 02:23:13;;;;;;;;;;;;;;;21.06;22.21;99203.47;5061370;28;1170;-80
2023/01/25 02:25:40;;;;;;;;;;;;;;;21.53;21.77;99208.88;5061345;28;1192;-79
2023/01/25 02:28:13;;;;;;;;;;;;;;;21.60;21.85;99203.13;5077515;28;1270;-80
2023/01/25 02:30:38;;;;;;;;;;;;;;;21.30;21.68;99207.41;5061748;28;929;-79
2023/01/25 02:33:04;;;;;;;;;;;;;;;20.92;22.38;99199.91;5073302;28;1977;-80
2023/01/25 02:35:43;;;;;;;;;;;;;;;20.99;22.75;99200.69;5118544;28;1008;-80
2023/01/25 02:38:09;;;;;;;;;;;;;;;21.65;21.52;99199.06;5079145;28;902;-80
2023/01/25 02:40:37;;;;;;;;;;;;;;;21.66;21.65;99201.50;5097585;28;1118;-79
2023/01/25 02:43:02;;;;;;;;;;;;;;;21.20;21.91;99196.94;5080959;28;911;-79
2023/01/25 02:45:28;;;;;;;;;;;;;;;21.08;22.08;99200.22;5097917;28;1236;-79
2023/01/25 02:47:53;;;;;;;;;;;;;;;21.20;22.21;99199.75;5064569;28;1182;-79
2023/01/25 02:50:19;;;;;;;;;;;;;;;21.61;21.49;99192.66;5044428;28;1197;-80
2023/01/25 02:52:44;;;;;;;;;;;;;;;21.72;21.45;99188.50;5037136;28;1918;-80
2023/01/25 02:55:10;;;;;;;;;;;;;;;21.20;21.98;99194.09;5037256;28;1331;-79
2023/01/25 02:57:38;;;;;;;;;;;;;;;21.03;22.15;99197.81;5037355;28;1201;-79
2023/01/25 03:00:05;;;;;;;;;;;;;;;21.46;21.63;99191.94;5053384;28;822;-79
2023/01/25 03:02:30;;;;;;;;;;;;;;;21.54;21.77;99199.16;5037510;28;1218;-80
2023/01/25 03:04:56;;;;;;;;;;;;;;;21.43;21.56;99198.41;5037129;28;1137;-79
2023/01/25 03:07:21;;;;;;;;;;;;;;;21.23;21.78;99196.09;5037313;28;842;-79
2023/01/25 03:09:48;;;;;;;;;;;;;;;21.36;21.96;99196.44;5020485;28;1194;-79
2023/01/25 03:12:13;;;;;;;;;;;;;;;21.20;21.96;99196.13;5070048;28;796;-79
2023/01/25 03:14:40;;;;;;;;;;;;;;;21.65;21.26;99199.88;5061538;28;1918;-80
2023/01/25 03:17:08;;;;;;;;;;;;;;;21.53;21.64;99194.72;5077641;28;1320;-80
2023/01/25 03:19:33;;;;;;;;;;;;;;;21.44;21.45;99195.16;5094968;28;1120;-79
2023/01/25 03:21:59;;;;;;;;;;;;;;;21.44;21.67;99197.19;5078225;28;1264;-80
2023/01/25 03:24:26;;;;;;;;;;;;;;;21.15;21.87;99199.38;5077783;28;1130;-79
2023/01/25 03:27:10;;;;;;;;;;;;;;;21.46;21.63;99197.59;5094011;28;1185;-80
2023/01/25 03:29:41;;;;;;;;;;;;;;;21.38;21.68;99201.69;5077838;28;1226;-79
2023/01/25 03:32:11;;;;;;;;;;;;;;;21.68;21.36;99203.91;5093948;28;1399;-79
2023/01/25 03:34:37;;;;;;;;;;;;;;;21.16;21.88;99206.66;5096166;28;1970;-80
2023/01/25 03:37:02;;;;;;;;;;;;;;;21.50;21.89;99199.19;5080129;28;1132;-80
2023/01/25 03:39:30;;;;;;;;;;;;;;;21.12;22.03;99200.22;5096773;28;1304;-79
2023/01/25 03:41:55;;;;;;;;;;;;;;;21.21;22.11;99200.56;5097056;28;786;-80
2023/01/25 03:44:21;;;;;;;;;;;;;;;21.53;21.50;99191.88;5079001;28;1184;-80
2023/01/25 03:46:46;;;;;;;;;;;;;;;21.61;21.48;99199.13;5097093;28;1250;-80
2023/01/25 03:49:12;;;;;;;;;;;;;;;21.36;21.79;99198.47;5096596;28;1219;-80
2023/01/25 03:51:38;;;;;;;;;;;;;;;21.24;22.18;99196.88;5096816;28;881;-79
2023/01/25 03:54:07;;;;;;;;;;;;;;;21.11;22.33;99188.09;5096291;28;1982;-80
2023/01/25 03:56:34;;;;;;;;;;;;;;;21.18;22.10;99182.38;5080183;28;1230;-79
2023/01/25 03:59:06;;;;;;;;;;;;;;;21.21;21.99;99187.22;5063239;28;1555;-80
2023/01/25 04:01:33;;;;;;;;;;;;;;;21.50;21.59;99175.72;5063530;28;1238;-79
2023/01/25 04:04:00;;;;;;;;;;;;;;;21.72;21.52;99182.81;5079837;28;1149;-79
2023/01/25 04:06:26;;;;;;;;;;;;;;;21.28;22.08;99181.50;5076134;28;1219;-80
2023/01/25 04:08:51;;;;;;;;;;;;;;;21.23;21.81;99187.59;5059341;28;1074;-80
2023/01/25 04:11:18;;;;;;;;;;;;;;;21.28;22.17;99187.16;5059990;28;1161;-80
2023/01/25 04:13:46;;;;;;;;;;;;;;;21.39;21.70;99189.94;5092210;28;1926;-80
2023/01/25 04:16:14;;;;;;;;;;;;;;;21.24;21.92;99185.56;5059786;28;1114;-80
2023/01/25 04:18:57;;;;;;;;;;;;;;;21.26;22.11;99188.81;5075815;28;608;-80
2023/01/25 04:21:24;;;;;;;;;;;;;;;21.28;21.90;99189.97;5059245;28;1144;-80
2023/01/25 04:23:49;;;;;;;;;;;;;;;21.16;22.10;99190.47;5059391;28;1259;-80
2023/01/25 04:26:15;;;;;;;;;;;;;;;20.84;22.62;99189.84;5059527;28;1226;-80
2023/01/25 04:28:46;;;;;;;;;;;;;;;21.01;22.50;99194.59;5058966;28;1452;-80
2023/01/25 04:31:12;;;;;;;;;;;;;;;21.50;21.84;99193.53;5059521;28;1098;-80
2023/01/25 04:33:39;;;;;;;;;;;;;;;21.42;21.66;99191.16;5091778;28;1914;-80
2023/01/25 04:36:06;;;;;;;;;;;;;;;21.51;22.00;99188.66;5060131;28;1324;-80
2023/01/25 04:38:32;;;;;;;;;;;;;;;21.42;21.60;99179.81;5084531;28;1741;-80
2023/01/25 04:40:57;;;;;;;;;;;;;;;21.12;22.54;99192.50;5057279;28;1633;-80
2023/01/25 04:43:24;;;;;;;;;;;;;;;21.29;21.98;99188.75;5073219;28;845;-80
2023/01/25 04:45:54;;;;;;;;;;;;;;;21.30;22.06;99181.94;5073032;28;1102;-80
2023/01/25 04:48:24;;;;;;;;;;;;;;;21.24;21.93;99186.41;5055725;28;1367;-80
2023/01/25 04:50:55;;;;;;;;;;;;;;;20.99;22.31;99192.19;5056661;28;1389;-80
2023/01/25 04:53:22;;;;;;;;;;;;;;;21.30;21.82;99192.47;5035455;28;1910;-80
2023/01/25 04:55:48;;;;;;;;;;;;;;;21.57;21.56;99187.00;5030896;28;1340;-80
2023/01/25 04:58:14;;;;;;;;;;;;;;;21.36;21.86;99181.50;5039063;28;1100;-80
2023/01/25 05:00:40;;;;;;;;;;;;;;;21.49;21.83;99188.25;5019483;28;1309;-80
2023/01/25 05:03:06;;;;;;;;;;;;;;;21.19;22.04;99188.81;5018694;28;1501;-81
2023/01/25 05:05:31;;;;;;;;;;;;;;;21.43;21.85;99193.56;4983893;28;1555;-80
2023/01/25 05:07:59;;;;;;;;;;;;;;;21.40;21.79;99179.41;5016308;28;1115;-80
2023/01/25 05:10:27;;;;;;;;;;;;;;;21.33;21.87;99186.75;5015861;28;941;-78
2023/01/25 05:13:15;;;;;;;;;;;;;;;21.48;21.97;99189.50;5001773;28;1973;-80
2023/01/25 05:15:41;;;;;;;;;;;;;;;21.50;21.47;99187.88;5008327;28;1857;-80
2023/01/25 05:18:07;;;;;;;;;;;;;;;21.28;21.74;99192.81;5015342;28;905;-80
2023/01/25 05:20:33;;;;;;;;;;;;;;;21.18;21.93;99193.69;4999421;28;1879;-80
2023/01/25 05:22:59;;;;;;;;;;;;;;;21.51;21.57;99188.66;4967221;28;1001;-80
2023/01/25 05:28:14;;;;;;;;;;;;;;;21.60;21.39;99188.97;4985610;28;1185;-80
2023/01/25 05:31:08;;;;;;;;;;;;;;;21.32;21.75;99187.97;4991340;28;1751;-80
2023/01/25 05:33:34;;;;;;;;;;;;;;;21.24;21.91;99191.22;5015278;28;1922;-80
2023/01/25 05:35:59;;;;;;;;;;;;;;;21.02;22.53;99184.91;5031605;28;1448;-80
2023/01/25 05:38:30;;;;;;;;;;;;;;;21.06;22.06;99189.31;5003097;28;1100;-80
2023/01/25 05:40:57;;;;;;;;;;;;;;;21.59;21.61;99195.88;5020911;28;1079;-80
2023/01/25 05:43:23;;;;;;;;;;;;;;;21.59;21.53;99195.88;5033962;28;1234;-80
2023/01/25 05:45:52;;;;;;;;;;;;;;;21.31;21.77;99196.88;5062746;28;1231;-80
2023/01/25 05:48:17;;;;;;;;;;;;;;;21.27;21.78;99196.06;5061725;28;1273;-80
2023/01/25 05:50:43;;;;;;;;;;;;;;;20.45;22.78;99193.59;5062048;28;1257;-80
2023/01/25 05:53:13;;;;;;;;;;;;;;;21.06;22.14;99199.84;5062810;28;1984;-80
2023/01/25 05:55:38;;;;;;;;;;;;;;;21.47;21.75;99199.22;5046064;28;1150;-80
2023/01/25 05:58:08;;;;;;;;;;;;;;;21.45;21.73;99195.97;5062357;28;1142;-80
2023/01/25 06:00:33;;;;;;;;;;;;;;;21.40;21.99;99199.25;5062325;28;1238;-80
2023/01/25 06:03:00;;;;;;;;;;;;;;;21.19;22.01;99200.16;5062437;28;1083;-80
2023/01/25 06:05:26;;;;;;;;;;;;;;;21.13;22.11;99208.28;5062353;28;1129;-80
2023/01/25 06:07:52;;;;;;;;;;;;;;;21.37;21.75;99203.72;5052615;28;1535;-80
2023/01/25 06:10:21;;;;;;;;;;;;;;;21.72;21.59;99208.31;5073099;28;1497;-80
2023/01/25 06:12:48;;;;;;;;;;;;;;;21.66;21.32;99207.16;5075507;28;1919;-80
2023/01/25 06:15:14;;;;;;;;;;;;;;;21.35;21.67;99211.00;5060630;28;822;-80
2023/01/25 06:17:40;;;;;;;;;;;;;;;21.36;21.72;99204.16;5076873;28;1228;-80
2023/01/25 06:20:28;;;;;;;;;;;;;;;21.17;22.30;99209.06;5058693;28;950;-79
2023/01/25 06:23:03;;;;;;;;;;;;;;;21.37;22.11;99211.41;5058644;28;1134;-80
2023/01/25 06:25:28;;;;;;;;;;;;;;;21.58;21.78;99205.59;5062883;28;1531;-80
2023/01/25 06:27:54;;;;;;;;;;;;;;;21.46;21.77;99197.59;5042068;28;1118;-80
2023/01/25 06:30:19;;;;;;;;;;;;;;;21.13;22.34;99202.63;4989612;28;1490;-80
2023/01/25 06:32:45;;;;;;;;;;;;;;;21.23;21.96;99207.41;5038267;28;1906;-80
2023/01/25 06:35:10;;;;;;;;;;;;;;;21.35;21.85;99208.16;5021377;28;1871;-80
2023/01/25 06:37:36;;;;;;;;;;;;;;;21.43;21.83;99199.22;5017938;28;1229;-80
2023/01/25 06:40:01;;;;;;;;;;;;;;;21.33;21.87;99208.59;5017637;28;968;-80
2023/01/25 06:42:27;;;;;;;;;;;;;;;21.33;21.89;99205.75;5017511;28;1410;-80
2023/01/25 06:44:52;;;;;;;;;;;;;;;21.21;22.05;99209.84;4985340;28;1353;-80
2023/01/25 06:47:18;;;;;;;;;;;;;;;20.97;22.39;99208.75;5001945;28;954;-80
2023/01/25 06:49:43;;;;;;;;;;;;;;;21.42;21.85;99208.16;5017888;28;795;-80
2023/01/25 06:52:09;;;;;;;;;;;;;;;21.53;21.84;99208.88;5018429;28;1054;-80
2023/01/25 06:54:34;;;;;;;;;;;;;;;21.72;21.48;99216.81;5017369;28;1914;-80
2023/01/25 06:56:59;;;;;;;;;;;;;;;21.45;21.71;99218.63;4995482;28;986;-80
2023/01/25 06:59:25;;;;;;;;;;;;;;;21.07;22.30;99222.06;5014163;28;810;-80
2023/01/25 07:01:50;;;;;;;;;;;;;;;21.10;22.36;99219.63;5037787;28;771;-80
2023/01/25 07:04:16;;;;;;;;;;;;;;;20.98;22.50;99213.19;5020621;28;858;-80
2023/01/25 07:06:41;;;;;;;;;;;;;;;21.23;22.17;99213.06;5020647;28;1236;-80
2023/01/25 07:09:07;;;;;;;;;;;;;;;21.28;22.02;99212.63;5042286;28;1119;-80
2023/01/25 07:11:33;;;;;;;;;;;;;;;21.60;21.65;99220.13;5057729;28;1253;-80
2023/01/25 07:13:59;;;;;;;;;;;;;;;21.27;22.08;99213.84;5057033;28;1905;-80
2023/01/25 07:16:24;;;;;;;;;;;;;;;20.96;22.63;99214.84;5057594;28;842;-80
2023/01/25 07:18:50;;;;;;;;;;;;;;;20.97;22.42;99213.63;5057285;28;1291;-80
2023/01/25 07:21:16;;;;;;;;;;;;;;;21.58;21.39;99222.59;5056832;28;1539;-80
2023/01/25 07:23:42;;;;;;;;;;;;;;;21.36;21.96;99219.09;5040099;28;885;-80
2023/01/25 07:26:17;;;;;;;;;;;;;;;21.35;22.21;99213.84;5037317;28;1281;-80
2023/01/25 07:28:43;;;;;;;;;;;;;;;21.10;22.40;99214.78;5052602;28;1477;-80
2023/01/25 07:31:08;;;;;;;;;;;;;;;21.00;22.43;99207.16;5037435;28;803;-80
2023/01/25 07:33:34;;;;;;;;;;;;;;;21.28;22.22;99204.13;5027165;28;1918;-80
2023/01/25 07:36:00;;;;;;;;;;;;;;;21.41;22.08;99198.03;5037329;28;838;-80
2023/01/25 07:38:25;;;;;;;;;;;;;;;21.33;21.98;99206.56;5019955;28;1213;-80
2023/01/25 07:40:52;;;;;;;;;;;;;;;21.51;21.71;99205.66;5020926;28;1122;-80
2023/01/25 07:43:17;;;;;;;;;;;;;;;21.40;21.99;99196.41;5036331;28;954;-80
2023/01/25 07:45:47;;;;;;;;;;;;;;;21.06;22.47;99200.63;5037113;28;829;-80
2023/01/25 07:48:13;;;;;;;;;;;;;;;21.01;22.36;99191.78;5036125;28;1442;-80
2023/01/25 07:50:40;;;;;;;;;;;;;;;21.25;22.10;99185.16;5020678;28;787;-79
2023/01/25 07:53:06;;;;;;;;;;;;;;;21.59;21.79;99187.38;5036803;28;1918;-80
2023/01/25 07:55:31;;;;;;;;;;;;;;;21.45;21.96;99184.66;5036967;28;967;-80
2023/01/25 07:57:56;;;;;;;;;;;;;;;21.54;21.69;99190.66;5040303;28;1339;-80
2023/01/25 08:00:22;;;;;;;;;;;;;;;21.44;21.97;99194.38;5076421;28;770;-80
2023/01/25 08:02:50;;;;;;;;;;;;;;;21.53;21.70;99194.72;5075876;28;1491;-80
2023/01/25 08:05:16;;;;;;;;;;;;;;;21.19;22.01;99200.97;5059771;28;857;-80
2023/01/25 08:07:41;;;;;;;;;;;;;;;21.00;22.75;99193.81;5076723;28;830;-80
2023/01/25 08:10:07;;;;;;;;;;;;;;;21.39;22.01;99197.63;5076388;28;840;-80
2023/01/25 08:12:33;;;;;;;;;;;;;;;21.56;21.94;99191.06;5062101;28;784;-80
2023/01/25 08:14:59;;;;;;;;;;;;;;;21.52;21.64;99198.78;5057103;28;1914;-80
2023/01/25 08:17:30;;;;;;;;;;;;;;;21.41;21.77;99196.00;5071479;28;1500;-80
2023/01/25 08:19:56;;;;;;;;;;;;;;;21.18;22.46;99193.69;5093237;28;1172;-80
2023/01/25 08:22:22;;;;;;;;;;;;;;;21.05;22.36;99201.06;5078817;28;727;-79
2023/01/25 08:24:47;;;;;;;;;;;;;;;21.68;21.90;99199.03;5076162;28;1654;-79
2023/01/25 08:27:13;;;;;;;;;;;;;;;21.58;21.96;99202.75;5078185;28;829;-80
2023/01/25 08:29:38;;;;;;;;;;;;;;;21.56;21.68;99208.06;5077777;28;843;-80
2023/01/25 08:32:05;;;;;;;;;;;;;;;21.42;21.91;99202.47;5077516;28;723;-80
2023/01/25 08:34:31;;;;;;;;;;;;;;;21.28;22.02;99204.13;5077695;28;1906;-80
2023/01/25 08:36:56;;;;;;;;;;;;;;;21.47;22.03;99208.50;5063317;28;1664;-79
2023/01/25 08:39:22;;;;;;;;;;;;;;;21.85;21.44;99206.56;5040256;28;1463;-79
2023/01/25 08:41:47;;;;;;;;;;;;;;;21.46;22.00;99208.94;5057566;28;948;-79
2023/01/25 08:44:13;;;;;;;;;;;;;;;21.53;21.77;99208.88;5055979;28;1690;-80
2023/01/25 08:46:38;;;;;;;;;;;;;;;21.14;22.24;99207.06;5065445;28;1460;-79
2023/01/25 08:49:04;;;;;;;;;;;;;;;21.28;22.39;99203.34;5090192;28;767;-80
2023/01/25 08:51:30;;;;;;;;;;;;;;;21.06;22.61;99205.50;5090118;28;720;-80
2023/01/25 08:53:55;;;;;;;;;;;;;;;21.45;22.17;99205.28;5089426;28;1902;-80
2023/01/25 08:56:21;;;;;;;;;;;;;;;21.68;21.70;99204.72;5089679;28;1561;-80
2023/01/25 08:58:47;;;;;;;;;;;;;;;21.83;21.35;99209.03;5056362;28;1327;-80
2023/01/25 09:01:14;;;;;;;;;;;;;;;21.40;21.84;99204.91;5057062;28;751;-80
2023/01/25 09:03:40;;;;;;;;;;;;;;;21.18;22.27;99201.38;5056093;28;783;-79
2023/01/25 09:06:06;;;;;;;;;;;;;;;20.93;22.58;99204.34;5040603;28;1173;-80
2023/01/25 09:08:32;;;;;;;;;;;;;;;21.21;22.18;99204.19;5056562;28;1481;-80
2023/01/25 09:11:07;;;;;;;;;;;;;;;21.31;22.37;99191.22;5068296;28;1658;-79
2023/01/25 09:13:32;;;;;;;;;;;;;;;21.62;21.64;99192.22;5076959;28;1906;-80
2023/01/25 09:16:01;;;;;;;;;;;;;;;21.43;22.04;99195.59;5079643;28;711;-79
2023/01/25 09:18:27;;;;;;;;;;;;;;;21.17;22.26;99186.41;5081087;28;831;-80
2023/01/25 09:20:53;;;;;;;;;;;;;;;21.03;22.59;99192.16;5114897;28;940;-80
2023/01/25 09:23:21;;;;;;;;;;;;;;;21.41;21.91;99196.00;5114030;28;816;-80
2023/01/25 09:25:47;;;;;;;;;;;;;;;21.35;22.05;99185.53;5100817;28;1476;-80
2023/01/25 09:28:12;;;;;;;;;;;;;;;21.61;21.67;99182.13;5060861;28;723;-80
2023/01/25 09:30:38;;;;;;;;;;;;;;;21.13;22.28;99168.66;5060513;28;763;-79
2023/01/25 09:33:15;;;;;;;;;;;;;;;20.98;22.43;99172.78;5076633;28;1918;-80
2023/01/25 09:35:45;;;;;;;;;;;;;;;21.12;22.48;99167.03;5091966;28;801;-79
2023/01/25 09:38:11;;;;;;;;;;;;;;;21.38;22.36;99162.06;5093102;28;849;-79
2023/01/25 09:40:37;;;;;;;;;;;;;;;21.71;21.90;99152.91;5073300;28;1580;-79
2023/01/25 09:43:09;;;;;;;;;;;;;;;21.78;21.47;99150.00;5096730;28;778;-80
2023/01/25 09:45:35;;;;;;;;;;;;;;;21.29;22.37;99154.78;5096816;28;1204;-79
2023/01/25 09:48:03;;;;;;;;;;;;;;;21.01;22.70;99160.66;5113290;28;818;-79
2023/01/25 09:50:32;;;;;;;;;;;;;;;21.50;21.94;99153.88;5081050;28;692;-79
2023/01/25 09:53:16;;;;;;;;;;;;;;;21.38;22.11;99142.22;5080199;28;1914;-79
2023/01/25 09:55:42;;;;;;;;;;;;;;;21.62;21.77;99135.56;5063638;28;1536;-80
2023/01/25 09:58:10;;;;;;;;;;;;;;;21.33;22.19;99144.28;5059369;28;877;-80
2023/01/25 10:00:37;;;;;;;;;;;;;;;21.32;22.12;99142.69;5059599;28;912;-79
2023/01/25 10:03:18;;;;;;;;;;;;;;;21.17;22.38;99143.16;5042540;28;805;-80
2023/01/25 10:05:48;;;;;;;;;;;;;;;21.71;21.98;99135.91;5059555;28;774;-80
2023/01/25 10:08:29;;;;;;;;;;;;;;;21.67;21.94;99135.13;5058897;28;806;-79
2023/01/25 10:10:57;;;;;;;;;;;;;;;21.72;21.81;99126.16;5074662;28;1416;-80
2023/01/25 10:13:22;;;;;;;;;;;;;;;21.05;22.68;99133.16;5058801;28;1906;-79
2023/01/25 10:16:04;;;;;;;;;;;;;;;21.13;22.39;99128.22;5067396;28;1415;-80
2023/01/25 10:19:08;;;;;;;;;;;;;;;21.27;22.07;99134.59;5061864;28;1327;-79
2023/01/25 10:21:35;;;;;;;;;;;;;;;21.36;22.16;99130.53;5038545;28;846;-79
2023/01/25 10:24:03;;;;;;;;;;;;;;;21.48;22.22;99125.16;5037880;28;769;-79
2023/01/25 10:26:33;;;;;;;;;;;;;;;21.12;22.39;99118.94;5037386;28;1585;-80
2023/01/25 10:28:58;;;;;;;;;;;;;;;21.19;22.65;99116.06;5037372;28;1149;-80
2023/01/25 10:31:41;;;;;;;;;;;;;;;21.12;22.54;99113.28;5021699;28;819;-80
2023/01/25 10:34:17;;;;;;;;;;;;;;;21.60;22.05;99098.34;5054313;28;1910;-80
2023/01/25 10:36:42;;;;;;;;;;;;;;;21.32;22.30;99103.03;5038413;28;848;-80
2023/01/25 10:39:08;;;;;;;;;;;;;;;21.65;21.90;99097.91;5021411;28;986;-80
2023/01/25 10:41:36;;;;;;;;;;;;;;;21.41;21.93;99098.94;5009081;28;1463;-80
2023/01/25 10:46:50;;;;;;;;;;;;;;;21.31;22.53;99083.66;5017983;28;882;-80
2023/01/25 10:49:23;;;;;;;;;;;;;;;21.60;22.02;99081.34;5017624;28;696;-80
2023/01/25 10:51:48;;;;;;;;;;;;;;;21.62;22.09;99084.59;5009632;28;975;-80
2023/01/25 10:54:14;;;;;;;;;;;;;;;21.54;22.07;99081.00;5020729;28;1910;-80
2023/01/25 10:56:40;;;;;;;;;;;;;;;21.13;22.33;99075.25;5035150;28;1486;-80
2023/01/25 10:59:25;;;;;;;;;;;;;;;21.01;22.59;99072.94;5057438;28;731;-80
2023/01/25 11:01:51;;;;;;;;;;;;;;;20.94;22.86;99073.00;5056317;28;1459;-80
2023/01/25 11:04:32;;;;;;;;;;;;;;;21.18;22.73;99059.88;5057063;28;880;-78
2023/01/25 11:06:58;;;;;;;;;;;;;;;21.36;22.41;99045.59;5053127;28;895;-79
2023/01/25 11:09:33;;;;;;;;;;;;;;;21.49;21.95;99046.69;5053641;28;855;-80
2023/01/25 11:12:02;;;;;;;;;;;;;;;21.38;22.12;99049.59;5037247;28;977;-80
2023/01/25 11:14:29;;;;;;;;;;;;;;;21.21;22.51;99040.03;5052757;28;1914;-79
2023/01/25 11:16:55;;;;;;;;;;;;;;;20.88;22.84;99043.50;5020754;28;821;-80
2023/01/25 11:19:26;;;;;;;;;;;;;;;21.06;22.67;99039.34;5037332;28;779;-80
2023/01/25 11:21:57;;;;;;;;;;;;;;;21.32;22.35;99035.09;5039061;28;1612;-80
2023/01/25 11:24:30;;;;;;;;;;;;;;;21.42;22.28;99032.59;5074802;28;799;-80
2023/01/25 11:27:15;;;;;;;;;;;;;;;21.24;22.46;99029.88;5074664;28;887;-80
2023/01/25 11:29:41;;;;;;;;;;;;;;;21.37;22.12;99036.69;5058640;28;879;-80
2023/01/25 11:32:14;;;;;;;;;;;;;;;21.20;22.59;99032.75;5057524;28;1508;-80
2023/01/25 11:34:40;;;;;;;;;;;;;;;21.37;22.21;99021.72;5111425;28;1988;-79
2023/01/25 11:37:21;;;;;;;;;;;;;;;21.76;21.68;99016.47;5079192;28;779;-79
2023/01/25 11:40:05;;;;;;;;;;;;;;;21.74;21.82;99027.41;5110615;28;782;-80
2023/01/25 11:42:41;;;;;;;;;;;;;;;21.13;22.36;99027.16;5079201;28;755;-79
2023/01/25 11:45:19;;;;;;;;;;;;;;;21.32;22.40;99012.44;5093749;28;878;-80
2023/01/25 11:47:44;;;;;;;;;;;;;;;21.17;22.72;99012.97;5068821;28;1362;-80
2023/01/25 11:50:19;;;;;;;;;;;;;;;21.93;21.42;99011.00;5058457;28;767;-80
2023/01/25 11:52:54;;;;;;;;;;;;;;;21.89;21.67;99016.72;5058996;28;775;-80
2023/01/25 11:55:47;;;;;;;;;;;;;;;21.47;21.84;99017.97;5058960;28;833;-80
2023/01/25 11:58:28;;;;;;;;;;;;;;;21.06;22.48;99022.34;5074027;28;1223;-79
2023/01/25 12:00:59;;;;;;;;;;;;;;;21.29;22.29;99018.09;5058642;28;873;-80
2023/01/25 12:03:28;;;;;;;;;;;;;;;21.38;22.06;99014.84;5073793;28;1473;-79
2023/01/25 12:06:12;;;;;;;;;;;;;;;21.39;22.19;99011.56;5078611;28;719;-80
2023/01/25 12:08:54;;;;;;;;;;;;;;;21.68;21.84;98995.09;5077967;28;849;-80
2023/01/25 12:11:25;;;;;;;;;;;;;;;21.36;22.09;99000.31;5094456;28;1217;-79
2023/01/25 12:14:09;;;;;;;;;;;;;;;21.38;22.31;99003.50;5076633;28;1918;-79
2023/01/25 12:16:47;;;;;;;;;;;;;;;21.12;22.70;99002.91;5077597;28;1721;-80
2023/01/25 12:19:31;;;;;;;;;;;;;;;21.26;22.34;98991.47;5077070;28;1089;-80
2023/01/25 12:21:56;;;;;;;;;;;;;;;21.57;22.03;98994.41;5078065;28;869;-79
2023/01/25 12:24:41;;;;;;;;;;;;;;;21.77;21.66;98981.25;5076711;28;862;-80
2023/01/25 12:27:06;;;;;;;;;;;;;;;21.11;22.42;98992.81;5077571;28;1278;-79
2023/01/25 12:29:36;;;;;;;;;;;;;;;21.13;22.53;98993.19;5077846;28;743;-79
2023/01/25 12:32:04;;;;;;;;;;;;;;;21.20;22.38;98992.34;5083731;28;1662;-80
2023/01/25 12:34:31;;;;;;;;;;;;;;;21.45;22.20;98989.28;5057585;28;1971;-80
2023/01/25 12:36:57;;;;;;;;;;;;;;;21.75;22.03;98988.53;5090732;28;876;-79
2023/01/25 12:39:24;;;;;;;;;;;;;;;21.67;21.64;98989.88;5090172;28;735;-80
2023/01/25 12:42:01;;;;;;;;;;;;;;;21.71;21.78;98988.59;5089919;28;858;-80
2023/01/25 12:44:30;;;;;;;;;;;;;;;21.09;22.63;98992.44;5072026;28;876;-80
2023/01/25 12:47:05;;;;;;;;;;;;;;;21.14;22.54;98994.81;5067948;28;1624;-80
2023/01/25 12:49:33;;;;;;;;;;;;;;;21.07;22.46;98990.00;5078389;28;911;-79
2023/01/25 12:51:59;;;;;;;;;;;;;;;21.32;22.20;98989.81;5114659;28;786;-80
2023/01/25 12:54:35;;;;;;;;;;;;;;;21.50;21.97;98983.97;5081809;28;1914;-80
2023/01/25 12:57:07;;;;;;;;;;;;;;;21.71;21.90;98982.94;5098419;28;1289;-80
2023/01/25 12:59:32;;;;;;;;;;;;;;;21.33;22.34;98971.59;5081935;28;711;-80
2023/01/25 13:02:21;;;;;;;;;;;;;;;21.25;22.43;98978.53;5069021;28;1517;-80
2023/01/25 13:04:58;;;;;;;;;;;;;;;20.95;22.68;98976.38;5099157;28;878;-80
2023/01/25 13:07:28;;;;;;;;;;;;;;;21.62;21.99;98968.47;5066351;28;952;-80
2023/01/25 13:10:02;;;;;;;;;;;;;;;21.69;21.78;98950.59;5039045;28;1283;-80
2023/01/25 13:12:28;;;;;;;;;;;;;;;21.70;21.68;98958.66;5039359;28;1493;-80